Nimbus Weather Services

Informe meteorológico para Carrasco, Uruguay. El informe se hizo hace 7 minutos, a las 21:00 UTC. El viento soplaba a una velocidad de 4.1 m/s (9.2 millas por hora) del oeste (270°). La temperatura era 13 °C (55 °F), con un punto de rocío de 9 °C (48 °F). La presión atmosférica era 1020 hPa (30.12 inHg). Había una humedad relativa del 76.7%. Cielo: sin nubes por debajo de 1500 metros (5000 pies) y sin presencia de cumulusnimbos. En aquel momento la visibilidad global era mayor de 10 kilómetros (6.2 millas).

La clave METAR es: SUMU 142100Z 27008KT CAVOK 13/09 Q1020 NOSIG

Consulta realizada el Martes 14 de Agosto de 2018 18:07. Tiempo usado para generar esta pagina:4,000 ms.